sensor_id;sensor_type;location;lat;lon;timestamp;pressure;altitude;pressure_sealevel;temperature;humidity
44198;BME280;30157;55.512;37.764;2022-10-22T00:00:31;100453.56;;;3.92;89.77
44198;BME280;30157;55.512;37.764;2022-10-22T00:02:57;100436.94;;;3.81;89.87
44198;BME280;30157;55.512;37.764;2022-10-22T00:05:25;100350.59;;;3.30;89.81
44198;BME280;30157;55.512;37.764;2022-10-22T00:07:53;100408.47;;;3.73;89.85
44198;BME280;30157;55.512;37.764;2022-10-22T00:10:19;100424.22;;;3.84;89.67
44198;BME280;30157;55.512;37.764;2022-10-22T00:12:48;100458.00;;;3.96;89.83
44198;BME280;30157;55.512;37.764;2022-10-22T00:15:13;100456.16;;;3.92;89.81
44198;BME280;30157;55.512;37.764;2022-10-22T00:17:39;100442.53;;;3.95;89.68
44198;BME280;30157;55.512;37.764;2022-10-22T00:20:05;100385.13;;;3.67;89.93
44198;BME280;30157;55.512;37.764;2022-10-22T00:22:33;100382.56;;;3.67;89.72
44198;BME280;30157;55.512;37.764;2022-10-22T00:24:59;100428.75;;;3.93;89.88
44198;BME280;30157;55.512;37.764;2022-10-22T00:27:24;100392.03;;;3.68;89.95
44198;BME280;30157;55.512;37.764;2022-10-22T00:29:50;100432.13;;;3.92;90.17
44198;BME280;30157;55.512;37.764;2022-10-22T00:32:19;100438.22;;;3.94;90.31
44198;BME280;30157;55.512;37.764;2022-10-22T00:34:44;100364.00;;;3.48;90.28
44198;BME280;30157;55.512;37.764;2022-10-22T00:37:10;100440.72;;;3.92;90.37
44198;BME280;30157;55.512;37.764;2022-10-22T00:39:36;100378.97;;;3.62;90.58
44198;BME280;30157;55.512;37.764;2022-10-22T00:42:04;100338.75;;;3.35;90.29
44198;BME280;30157;55.512;37.764;2022-10-22T00:50:06;100264.44;;;2.85;90.58
44198;BME280;30157;55.512;37.764;2022-10-22T00:52:40;100432.00;;;3.87;90.78
44198;BME280;30157;55.512;37.764;2022-10-22T00:55:06;100438.72;;;3.83;91.03
44198;BME280;30157;55.512;37.764;2022-10-22T00:57:36;100437.78;;;3.80;91.21
44198;BME280;30157;55.512;37.764;2022-10-22T01:00:05;100414.50;;;3.75;91.14
44198;BME280;30157;55.512;37.764;2022-10-22T01:02:31;100372.69;;;3.52;91.11
44198;BME280;30157;55.512;37.764;2022-10-22T01:04:59;100423.47;;;3.88;91.17
44198;BME280;30157;55.512;37.764;2022-10-22T01:07:25;100430.38;;;3.89;91.21
44198;BME280;30157;55.512;37.764;2022-10-22T01:17:52;100358.44;;;3.34;91.56
44198;BME280;30157;55.512;37.764;2022-10-22T01:28:56;100432.53;;;3.77;91.64
44198;BME280;30157;55.512;37.764;2022-10-22T01:31:44;100432.44;;;3.74;91.66
44198;BME280;30157;55.512;37.764;2022-10-22T01:34:16;100418.38;;;3.62;91.73
44198;BME280;30157;55.512;37.764;2022-10-22T01:36:45;100396.47;;;3.46;91.83
44198;BME280;30157;55.512;37.764;2022-10-22T01:39:14;100421.03;;;3.65;91.98
44198;BME280;30157;55.512;37.764;2022-10-22T01:41:43;100413.34;;;3.65;91.89
44198;BME280;30157;55.512;37.764;2022-10-22T01:55:26;100434.63;;;3.89;91.78
44198;BME280;30157;55.512;37.764;2022-10-22T02:00:39;100392.44;;;3.55;91.57
44198;BME280;30157;55.512;37.764;2022-10-22T02:03:13;100438.00;;;3.87;91.60
44198;BME280;30157;55.512;37.764;2022-10-22T02:05:48;100421.44;;;3.78;91.73
44198;BME280;30157;55.512;37.764;2022-10-22T02:08:23;100410.13;;;3.73;91.71
44198;BME280;30157;55.512;37.764;2022-10-22T02:10:51;100389.47;;;3.68;91.52
44198;BME280;30157;55.512;37.764;2022-10-22T02:13:25;100443.47;;;3.98;91.26
44198;BME280;30157;55.512;37.764;2022-10-22T02:15:53;100424.50;;;3.93;91.29
44198;BME280;30157;55.512;37.764;2022-10-22T02:18:27;100434.97;;;3.99;91.28
44198;BME280;30157;55.512;37.764;2022-10-22T02:20:54;100383.25;;;3.61;91.62
44198;BME280;30157;55.512;37.764;2022-10-22T02:23:20;100384.06;;;3.60;91.67
44198;BME280;30157;55.512;37.764;2022-10-22T02:25:54;100420.63;;;3.79;91.77
44198;BME280;30157;55.512;37.764;2022-10-22T02:30:56;100456.41;;;4.00;91.67
44198;BME280;30157;55.512;37.764;2022-10-22T02:33:33;100461.47;;;3.98;91.75
44198;BME280;30157;55.512;37.764;2022-10-22T02:36:02;100451.78;;;3.90;91.57
44198;BME280;30157;55.512;37.764;2022-10-22T02:38:38;100458.00;;;3.96;91.83
44198;BME280;30157;55.512;37.764;2022-10-22T02:41:05;100394.28;;;3.59;91.61
44198;BME280;30157;55.512;37.764;2022-10-22T02:43:39;100461.97;;;3.86;91.90
44198;BME280;30157;55.512;37.764;2022-10-22T02:46:05;100423.50;;;3.62;91.98
44198;BME280;30157;55.512;37.764;2022-10-22T02:48:36;100460.88;;;3.80;92.27
44198;BME280;30157;55.512;37.764;2022-10-22T02:51:02;100403.41;;;3.49;92.38
44198;BME280;30157;55.512;37.764;2022-10-22T02:53:33;100308.97;;;2.87;92.47
44198;BME280;30157;55.512;37.764;2022-10-22T02:56:01;100415.25;;;3.45;92.69
44198;BME280;30157;55.512;37.764;2022-10-22T02:58:26;100440.59;;;3.62;92.60
44198;BME280;30157;55.512;37.764;2022-10-22T03:00:55;100466.63;;;3.73;92.92
44198;BME280;30157;55.512;37.764;2022-10-22T03:03:21;100463.28;;;3.75;92.89
44198;BME280;30157;55.512;37.764;2022-10-22T03:05:51;100450.13;;;3.66;92.87
44198;BME280;30157;55.512;37.764;2022-10-22T03:08:17;100472.88;;;3.81;92.52
44198;BME280;30157;55.512;37.764;2022-10-22T03:10:45;100461.84;;;3.83;92.53
44198;BME280;30157;55.512;37.764;2022-10-22T03:13:16;100448.78;;;3.76;92.25
44198;BME280;30157;55.512;37.764;2022-10-22T03:15:42;100462.88;;;3.89;92.20
44198;BME280;30157;55.512;37.764;2022-10-22T03:18:07;100442.03;;;3.79;92.47
44198;BME280;30157;55.512;37.764;2022-10-22T03:20:35;100442.38;;;3.90;92.56
44198;BME280;30157;55.512;37.764;2022-10-22T03:23:04;100453.63;;;3.94;92.40
44198;BME280;30157;55.512;37.764;2022-10-22T03:25:33;100414.88;;;3.87;92.12
44198;BME280;30157;55.512;37.764;2022-10-22T03:28:05;100391.31;;;3.72;91.68
44198;BME280;30157;55.512;37.764;2022-10-22T03:30:34;100419.97;;;3.86;91.28
44198;BME280;30157;55.512;37.764;2022-10-22T03:33:00;100443.97;;;3.86;91.25
44198;BME280;30157;55.512;37.764;2022-10-22T03:35:29;100402.97;;;3.62;91.47
44198;BME280;30157;55.512;37.764;2022-10-22T03:38:01;100397.75;;;3.61;91.48
44198;BME280;30157;55.512;37.764;2022-10-22T03:40:27;100453.50;;;3.89;91.50
44198;BME280;30157;55.512;37.764;2022-10-22T03:42:53;100430.00;;;3.78;91.69
44198;BME280;30157;55.512;37.764;2022-10-22T03:45:22;100449.88;;;3.84;91.88
44198;BME280;30157;55.512;37.764;2022-10-22T03:47:47;100441.13;;;3.77;91.85
44198;BME280;30157;55.512;37.764;2022-10-22T03:50:22;100442.66;;;3.72;91.61
44198;BME280;30157;55.512;37.764;2022-10-22T03:52:56;100451.44;;;3.79;91.68
44198;BME280;30157;55.512;37.764;2022-10-22T03:55:27;100474.84;;;3.88;91.71
44198;BME280;30157;55.512;37.764;2022-10-22T03:57:53;100473.91;;;3.86;91.91
44198;BME280;30157;55.512;37.764;2022-10-22T04:00:18;100419.09;;;3.58;91.64
44198;BME280;30157;55.512;37.764;2022-10-22T04:02:47;100439.16;;;3.70;91.60
44198;BME280;30157;55.512;37.764;2022-10-22T04:05:22;100453.31;;;3.84;91.68
44198;BME280;30157;55.512;37.764;2022-10-22T04:07:48;100463.75;;;3.89;91.34
44198;BME280;30157;55.512;37.764;2022-10-22T04:10:13;100475.03;;;3.94;91.34
44198;BME280;30157;55.512;37.764;2022-10-22T04:12:39;100324.31;;;3.11;91.37
44198;BME280;30157;55.512;37.764;2022-10-22T04:15:05;100423.69;;;3.68;91.18
44198;BME280;30157;55.512;37.764;2022-10-22T04:17:35;100455.16;;;3.89;91.35
44198;BME280;30157;55.512;37.764;2022-10-22T04:20:04;100470.88;;;3.98;91.19
44198;BME280;30157;55.512;37.764;2022-10-22T04:22:33;100449.97;;;3.87;91.25
44198;BME280;30157;55.512;37.764;2022-10-22T04:24:59;100455.34;;;3.93;90.96
44198;BME280;30157;55.512;37.764;2022-10-22T04:27:31;100458.66;;;3.91;91.20
44198;BME280;30157;55.512;37.764;2022-10-22T04:29:59;100438.63;;;3.80;90.98
44198;BME280;30157;55.512;37.764;2022-10-22T04:32:28;100461.38;;;3.95;90.96
44198;BME280;30157;55.512;37.764;2022-10-22T04:34:56;100469.16;;;3.98;91.03
44198;BME280;30157;55.512;37.764;2022-10-22T04:37:22;100401.94;;;3.57;90.81
44198;BME280;30157;55.512;37.764;2022-10-22T04:39:48;100418.59;;;3.70;90.80
44198;BME280;30157;55.512;37.764;2022-10-22T04:42:14;100471.31;;;4.12;91.03
44198;BME280;30157;55.512;37.764;2022-10-22T04:44:39;100433.81;;;3.90;90.89
44198;BME280;30157;55.512;37.764;2022-10-22T04:47:07;100445.19;;;3.98;90.56
44198;BME280;30157;55.512;37.764;2022-10-22T04:49:35;100459.16;;;4.06;90.54
44198;BME280;30157;55.512;37.764;2022-10-22T04:52:04;100408.13;;;3.62;90.31
44198;BME280;30157;55.512;37.764;2022-10-22T04:54:30;100424.63;;;3.70;90.53
44198;BME280;30157;55.512;37.764;2022-10-22T04:56:56;100484.66;;;4.00;90.52
44198;BME280;30157;55.512;37.764;2022-10-22T04:59:21;100481.19;;;3.99;90.65
44198;BME280;30157;55.512;37.764;2022-10-22T05:01:47;100482.84;;;3.97;90.64
44198;BME280;30157;55.512;37.764;2022-10-22T05:04:15;100468.16;;;3.93;90.56
44198;BME280;30157;55.512;37.764;2022-10-22T05:06:42;100469.88;;;3.94;90.67
44198;BME280;30157;55.512;37.764;2022-10-22T05:09:11;100396.59;;;3.51;90.59
44198;BME280;30157;55.512;37.764;2022-10-22T05:11:39;100471.50;;;3.91;90.47
44198;BME280;30157;55.512;37.764;2022-10-22T05:14:12;100432.03;;;3.61;90.32
44198;BME280;30157;55.512;37.764;2022-10-22T05:16:37;100484.44;;;3.94;90.56
44198;BME280;30157;55.512;37.764;2022-10-22T05:19:04;100435.50;;;3.63;90.53
44198;BME280;30157;55.512;37.764;2022-10-22T05:21:32;100486.75;;;3.86;90.54
44198;BME280;30157;55.512;37.764;2022-10-22T05:23:58;100484.00;;;3.80;90.54
44198;BME280;30157;55.512;37.764;2022-10-22T05:26:27;100464.00;;;3.71;90.51
44198;BME280;30157;55.512;37.764;2022-10-22T05:28:52;100436.09;;;3.55;90.76
44198;BME280;30157;55.512;37.764;2022-10-22T05:31:19;100493.63;;;3.87;90.80
44198;BME280;30157;55.512;37.764;2022-10-22T05:33:48;100468.28;;;3.70;90.79
44198;BME280;30157;55.512;37.764;2022-10-22T05:36:22;100495.53;;;3.93;90.68
44198;BME280;30157;55.512;37.764;2022-10-22T05:38:53;100424.16;;;3.57;90.49
44198;BME280;30157;55.512;37.764;2022-10-22T05:41:23;100469.59;;;3.85;90.37
44198;BME280;30157;55.512;37.764;2022-10-22T05:43:54;100497.34;;;3.95;90.09
44198;BME280;30157;55.512;37.764;2022-10-22T05:46:21;100490.13;;;3.85;90.37
44198;BME280;30157;55.512;37.764;2022-10-22T05:48:54;100428.94;;;3.46;90.22
44198;BME280;30157;55.512;37.764;2022-10-22T05:51:21;100397.63;;;3.30;90.48
44198;BME280;30157;55.512;37.764;2022-10-22T05:53:54;100459.44;;;3.62;90.43
44198;BME280;30157;55.512;37.764;2022-10-22T05:56:20;100510.81;;;3.88;90.33
44198;BME280;30157;55.512;37.764;2022-10-22T05:58:49;100500.34;;;3.83;90.55
44198;BME280;30157;55.512;37.764;2022-10-22T06:01:16;100508.50;;;3.96;90.15
44198;BME280;30157;55.512;37.764;2022-10-22T06:03:45;100508.50;;;3.96;90.14
44198;BME280;30157;55.512;37.764;2022-10-22T06:06:29;100438.47;;;3.50;90.17
44198;BME280;30157;55.512;37.764;2022-10-22T06:09:01;100508.38;;;3.93;90.07
44198;BME280;30157;55.512;37.764;2022-10-22T06:11:27;100507.81;;;4.01;89.97
44198;BME280;30157;55.512;37.764;2022-10-22T06:13:56;100405.97;;;3.49;90.10
44198;BME280;30157;55.512;37.764;2022-10-22T06:16:21;100458.31;;;3.80;89.76
44198;BME280;30157;55.512;37.764;2022-10-22T06:18:47;100509.97;;;4.15;89.71
44198;BME280;30157;55.512;37.764;2022-10-22T06:21:15;100510.97;;;4.20;89.68
44198;BME280;30157;55.512;37.764;2022-10-22T06:23:48;100511.16;;;4.26;89.48
44198;BME280;30157;55.512;37.764;2022-10-22T06:26:14;100457.00;;;3.93;89.34
44198;BME280;30157;55.512;37.764;2022-10-22T06:28:42;100494.22;;;4.04;89.52
44198;BME280;30157;55.512;37.764;2022-10-22T06:31:16;100521.44;;;4.26;89.55
44198;BME280;30157;55.512;37.764;2022-10-22T06:33:41;100471.19;;;4.07;89.47
44198;BME280;30157;55.512;37.764;2022-10-22T06:36:09;100508.06;;;4.36;89.24
44198;BME280;30157;55.512;37.764;2022-10-22T06:38:35;100512.41;;;4.37;89.29
44198;BME280;30157;55.512;37.764;2022-10-22T06:41:02;100463.31;;;4.02;89.05
44198;BME280;30157;55.512;37.764;2022-10-22T06:43:28;100375.25;;;3.52;88.75
44198;BME280;30157;55.512;37.764;2022-10-22T06:46:04;100533.81;;;4.38;88.65
44198;BME280;30157;55.512;37.764;2022-10-22T06:48:32;100535.53;;;4.37;88.82
44198;BME280;30157;55.512;37.764;2022-10-22T06:51:10;100530.31;;;4.36;88.67
44198;BME280;30157;55.512;37.764;2022-10-22T06:53:38;100505.34;;;4.32;88.74
44198;BME280;30157;55.512;37.764;2022-10-22T06:56:08;100509.09;;;4.42;88.75
44198;BME280;30157;55.512;37.764;2022-10-22T06:58:34;100458.41;;;4.10;88.62
44198;BME280;30157;55.512;37.764;2022-10-22T07:01:07;100472.34;;;4.17;88.59
44198;BME280;30157;55.512;37.764;2022-10-22T07:03:33;100480.28;;;4.25;88.66
44198;BME280;30157;55.512;37.764;2022-10-22T07:06:03;100482.13;;;4.29;88.55
44198;BME280;30157;55.512;37.764;2022-10-22T07:08:32;100515.34;;;4.50;88.42
44198;BME280;30157;55.512;37.764;2022-10-22T07:11:08;100533.75;;;4.64;88.30
44198;BME280;30157;55.512;37.764;2022-10-22T07:13:39;100518.09;;;4.56;88.30
44198;BME280;30157;55.512;37.764;2022-10-22T07:16:12;100536.56;;;4.71;88.24
44198;BME280;30157;55.512;37.764;2022-10-22T07:18:42;100535.22;;;4.84;88.03
44198;BME280;30157;55.512;37.764;2022-10-22T07:21:09;100485.53;;;4.55;88.06
44198;BME280;30157;55.512;37.764;2022-10-22T07:23:36;100552.56;;;4.90;87.63
44198;BME280;30157;55.512;37.764;2022-10-22T07:26:07;100553.38;;;4.89;87.58
44198;BME280;30157;55.512;37.764;2022-10-22T07:28:39;100490.00;;;4.62;87.63
44198;BME280;30157;55.512;37.764;2022-10-22T07:31:10;100545.06;;;4.98;87.42
44198;BME280;30157;55.512;37.764;2022-10-22T07:33:36;100545.09;;;4.99;87.10
44198;BME280;30157;55.512;37.764;2022-10-22T07:36:05;100555.50;;;5.02;86.89
44198;BME280;30157;55.512;37.764;2022-10-22T07:38:31;100558.06;;;5.02;86.80
44198;BME280;30157;55.512;37.764;2022-10-22T07:41:03;100557.28;;;5.05;86.79
44198;BME280;30157;55.512;37.764;2022-10-22T07:44:05;100520.09;;;4.95;86.43
44198;BME280;30157;55.512;37.764;2022-10-22T07:46:33;100554.09;;;5.14;86.43
44198;BME280;30157;55.512;37.764;2022-10-22T07:49:04;100540.34;;;5.12;86.48
44198;BME280;30157;55.512;37.764;2022-10-22T07:51:29;100547.50;;;5.24;86.07
44198;BME280;30157;55.512;37.764;2022-10-22T07:53:55;100450.56;;;4.62;85.76
44198;BME280;30157;55.512;37.764;2022-10-22T07:56:21;100542.94;;;5.13;85.79
44198;BME280;30157;55.512;37.764;2022-10-22T07:58:49;100551.78;;;5.23;85.93
44198;BME280;30157;55.512;37.764;2022-10-22T08:01:14;100543.06;;;5.18;85.89
44198;BME280;30157;55.512;37.764;2022-10-22T08:03:40;100543.09;;;5.19;86.08
44198;BME280;30157;55.512;37.764;2022-10-22T08:06:06;100490.13;;;4.96;85.82
44198;BME280;30157;55.512;37.764;2022-10-22T08:08:31;100549.25;;;5.25;85.39
44198;BME280;30157;55.512;37.764;2022-10-22T08:11:01;100533.44;;;5.11;85.25
44198;BME280;30157;55.512;37.764;2022-10-22T08:13:38;100544.25;;;5.29;85.42
44198;BME280;30157;55.512;37.764;2022-10-22T08:16:04;100520.97;;;5.26;85.33
44198;BME280;30157;55.512;37.764;2022-10-22T08:18:30;100522.47;;;5.18;84.88
44198;BME280;30157;55.512;37.764;2022-10-22T08:20:56;100547.03;;;5.37;84.87
44198;BME280;30157;55.512;37.764;2022-10-22T08:23:22;100549.06;;;5.49;85.07
44198;BME280;30157;55.512;37.764;2022-10-22T08:25:52;100543.34;;;5.59;84.97
44198;BME280;30157;55.512;37.764;2022-10-22T08:28:20;100544.47;;;5.69;84.73
44198;BME280;30157;55.512;37.764;2022-10-22T08:30:48;100435.69;;;5.12;84.30
44198;BME280;30157;55.512;37.764;2022-10-22T08:33:16;100496.97;;;5.58;84.46
44198;BME280;30157;55.512;37.764;2022-10-22T08:35:46;100542.34;;;5.86;83.07
44198;BME280;30157;55.512;37.764;2022-10-22T08:38:15;100533.56;;;5.78;82.93
44198;BME280;30157;55.512;37.764;2022-10-22T08:40:41;100537.75;;;5.74;82.28
44198;BME280;30157;55.512;37.764;2022-10-22T08:46:46;100395.53;;;4.87;82.13
44198;BME280;30157;55.512;37.764;2022-10-22T08:49:20;100517.84;;;5.68;81.27
44198;BME280;30157;55.512;37.764;2022-10-22T08:51:48;100504.84;;;5.64;81.36
44198;BME280;30157;55.512;37.764;2022-10-22T08:59:45;100536.69;;;5.98;80.15
44198;BME280;30157;55.512;37.764;2022-10-22T09:05:59;100536.22;;;6.14;79.82
44198;BME280;30157;55.512;37.764;2022-10-22T09:08:02;100512.94;;;6.11;79.83
44198;BME280;30157;55.512;37.764;2022-10-22T09:10:33;100477.31;;;5.96;78.27
44198;BME280;30157;55.512;37.764;2022-10-22T09:13:00;100533.94;;;6.27;76.71
44198;BME280;30157;55.512;37.764;2022-10-22T09:15:28;100518.28;;;6.19;77.63
44198;BME280;30157;55.512;37.764;2022-10-22T09:21:01;100524.78;;;6.39;77.59
44198;BME280;30157;55.512;37.764;2022-10-22T09:23:52;100515.25;;;6.35;76.45
44198;BME280;30157;55.512;37.764;2022-10-22T09:26:24;100516.06;;;6.34;76.85
44198;BME280;30157;55.512;37.764;2022-10-22T09:28:51;100513.56;;;6.37;76.63
44198;BME280;30157;55.512;37.764;2022-10-22T09:31:20;100522.28;;;6.43;76.87
44198;BME280;30157;55.512;37.764;2022-10-22T09:33:49;100514.38;;;6.36;76.86
44198;BME280;30157;55.512;37.764;2022-10-22T09:36:17;100512.53;;;6.31;77.39
44198;BME280;30157;55.512;37.764;2022-10-22T09:38:51;100517.69;;;6.31;76.15
44198;BME280;30157;55.512;37.764;2022-10-22T09:41:24;100508.13;;;6.25;75.70
44198;BME280;30157;55.512;37.764;2022-10-22T09:43:52;100457.53;;;5.94;75.41
44198;BME280;30157;55.512;37.764;2022-10-22T09:46:23;100454.25;;;5.99;75.58
44198;BME280;30157;55.512;37.764;2022-10-22T09:49:01;100503.81;;;6.26;74.52
44198;BME280;30157;55.512;37.764;2022-10-22T09:57:04;100488.09;;;6.15;73.82
44198;BME280;30157;55.512;37.764;2022-10-22T09:59:37;100501.97;;;6.20;73.11
44198;BME280;30157;55.512;37.764;2022-10-22T10:04:54;100515.84;;;6.25;72.95
44198;BME280;30157;55.512;37.764;2022-10-22T10:07:31;100469.75;;;6.01;73.20
44198;BME280;30157;55.512;37.764;2022-10-22T10:09:58;100460.03;;;5.92;73.87
44198;BME280;30157;55.512;37.764;2022-10-22T10:12:27;100415.72;;;5.70;72.59
44198;BME280;30157;55.512;37.764;2022-10-22T10:17:57;100505.13;;;6.45;72.72
44198;BME280;30157;55.512;37.764;2022-10-22T10:23:38;100500.53;;;6.69;70.95
44198;BME280;30157;55.512;37.764;2022-10-22T10:41:09;100495.69;;;6.45;70.75
44198;BME280;30157;55.512;37.764;2022-10-22T10:44:40;100487.97;;;6.45;71.22
44198;BME280;30157;55.512;37.764;2022-10-22T10:47:37;100480.13;;;6.42;71.46
44198;BME280;30157;55.512;37.764;2022-10-22T11:01:08;100431.69;;;5.92;72.39
44198;BME280;30157;55.512;37.764;2022-10-22T11:06:21;100470.78;;;6.09;74.63
44198;BME280;30157;55.512;37.764;2022-10-22T11:09:04;100484.09;;;6.26;75.52
44198;BME280;30157;55.512;37.764;2022-10-22T11:11:54;100490.09;;;6.27;75.35
44198;BME280;30157;55.512;37.764;2022-10-22T11:17:16;100411.13;;;5.59;75.78
44198;BME280;30157;55.512;37.764;2022-10-22T11:20:06;100473.91;;;5.97;77.13
44198;BME280;30157;55.512;37.764;2022-10-22T11:22:56;100476.34;;;5.91;74.25
44198;BME280;30157;55.512;37.764;2022-10-22T11:25:34;100462.00;;;6.01;75.47
44198;BME280;30157;55.512;37.764;2022-10-22T11:28:10;100470.03;;;6.13;75.22
44198;BME280;30157;55.512;37.764;2022-10-22T11:30:48;100460.69;;;6.18;74.65
44198;BME280;30157;55.512;37.764;2022-10-22T11:33:20;100479.00;;;6.29;74.82
44198;BME280;30157;55.512;37.764;2022-10-22T11:35:51;100473.72;;;6.25;74.70
44198;BME280;30157;55.512;37.764;2022-10-22T11:38:23;100458.22;;;6.23;75.01
44198;BME280;30157;55.512;37.764;2022-10-22T11:40:58;100314.69;;;5.44;74.58
44198;BME280;30157;55.512;37.764;2022-10-22T11:43:33;100405.28;;;5.99;75.16
44198;BME280;30157;55.512;37.764;2022-10-22T11:46:27;100457.41;;;6.26;75.55
44198;BME280;30157;55.512;37.764;2022-10-22T11:51:33;100387.50;;;5.75;75.33
44198;BME280;30157;55.512;37.764;2022-10-22T11:54:07;100454.34;;;6.04;74.80
44198;BME280;30157;55.512;37.764;2022-10-22T11:57:20;100453.53;;;6.07;75.14
44198;BME280;30157;55.512;37.764;2022-10-22T11:59:59;100404.03;;;5.83;75.45
44198;BME280;30157;55.512;37.764;2022-10-22T12:02:38;100432.78;;;6.00;75.51
44198;BME280;30157;55.512;37.764;2022-10-22T12:07:52;100455.06;;;5.98;75.50
44198;BME280;30157;55.512;37.764;2022-10-22T12:10:26;100452.28;;;5.91;75.51
44198;BME280;30157;55.512;37.764;2022-10-22T12:12:57;100446.81;;;5.78;75.88
44198;BME280;30157;55.512;37.764;2022-10-22T12:15:28;100409.44;;;5.59;75.58
44198;BME280;30157;55.512;37.764;2022-10-22T12:18:25;100380.94;;;5.51;75.60
44198;BME280;30157;55.512;37.764;2022-10-22T12:20:54;100446.22;;;5.88;75.53
44198;BME280;30157;55.512;37.764;2022-10-22T12:23:28;100430.38;;;5.73;75.27
44198;BME280;30157;55.512;37.764;2022-10-22T12:25:55;100444.53;;;5.91;75.40
44198;BME280;30157;55.512;37.764;2022-10-22T12:28:24;100312.13;;;5.11;75.27
44198;BME280;30157;55.512;37.764;2022-10-22T12:30:55;100345.22;;;5.30;75.50
44198;BME280;30157;55.512;37.764;2022-10-22T12:33:23;100422.88;;;5.82;75.51
44198;BME280;30157;55.512;37.764;2022-10-22T12:35:57;100432.38;;;5.85;75.83
44198;BME280;30157;55.512;37.764;2022-10-22T12:38:29;100410.56;;;5.70;75.62
44198;BME280;30157;55.512;37.764;2022-10-22T12:40:56;100429.03;;;5.87;75.64
44198;BME280;30157;55.512;37.764;2022-10-22T12:43:27;100382.81;;;5.59;75.73
44198;BME280;30157;55.512;37.764;2022-10-22T12:45:55;100429.00;;;5.86;75.59
44198;BME280;30157;55.512;37.764;2022-10-22T12:48:27;100399.44;;;5.71;75.16
44198;BME280;30157;55.512;37.764;2022-10-22T12:51:02;100393.25;;;5.63;75.30
44198;BME280;30157;55.512;37.764;2022-10-22T12:53:41;100410.69;;;5.75;74.91
44198;BME280;30157;55.512;37.764;2022-10-22T12:56:17;100345.19;;;5.29;75.66
44198;BME280;30157;55.512;37.764;2022-10-22T12:58:47;100409.56;;;5.65;75.54
44198;BME280;30157;55.512;37.764;2022-10-22T13:01:15;100413.00;;;5.64;75.93
44198;BME280;30157;55.512;37.764;2022-10-22T13:03:49;100412.97;;;5.63;75.63
44198;BME280;30157;55.512;37.764;2022-10-22T13:09:10;100412.91;;;5.61;76.19
44198;BME280;30157;55.512;37.764;2022-10-22T13:11:40;100386.22;;;5.56;76.54
44198;BME280;30157;55.512;37.764;2022-10-22T13:14:29;100418.22;;;5.67;76.15
44198;BME280;30157;55.512;37.764;2022-10-22T13:19:36;100412.25;;;5.68;76.45
44198;BME280;30157;55.512;37.764;2022-10-22T13:22:03;100429.28;;;5.63;76.13
44198;BME280;30157;55.512;37.764;2022-10-22T13:24:47;100379.88;;;5.43;76.42
44198;BME280;30157;55.512;37.764;2022-10-22T13:27:13;100408.00;;;5.70;76.31
44198;BME280;30157;55.512;37.764;2022-10-22T13:29:40;100353.25;;;5.43;76.57
44198;BME280;30157;55.512;37.764;2022-10-22T13:32:26;100391.56;;;5.65;75.92
44198;BME280;30157;55.512;37.764;2022-10-22T13:34:57;100400.91;;;5.60;76.13
44198;BME280;30157;55.512;37.764;2022-10-22T13:37:24;100405.13;;;5.58;76.12
44198;BME280;30157;55.512;37.764;2022-10-22T13:39:52;100402.44;;;5.53;76.14
44198;BME280;30157;55.512;37.764;2022-10-22T13:42:23;100369.31;;;5.32;76.02
44198;BME280;30157;55.512;37.764;2022-10-22T13:44:52;100359.72;;;5.27;76.31
44198;BME280;30157;55.512;37.764;2022-10-22T13:47:27;100353.66;;;5.25;76.17
44198;BME280;30157;55.512;37.764;2022-10-22T13:49:59;100392.81;;;5.46;76.74
44198;BME280;30157;55.512;37.764;2022-10-22T13:52:39;100398.97;;;5.53;76.32
44198;BME280;30157;55.512;37.764;2022-10-22T13:55:15;100396.38;;;5.51;76.58
44198;BME280;30157;55.512;37.764;2022-10-22T13:57:41;100398.13;;;5.52;76.57
44198;BME280;30157;55.512;37.764;2022-10-22T14:00:12;100371.91;;;5.34;76.38
44198;BME280;30157;55.512;37.764;2022-10-22T14:02:40;100350.19;;;5.22;76.49
44198;BME280;30157;55.512;37.764;2022-10-22T14:05:06;100270.91;;;4.74;76.58
44198;BME280;30157;55.512;37.764;2022-10-22T14:07:35;100382.47;;;5.45;76.61
44198;BME280;30157;55.512;37.764;2022-10-22T14:10:02;100386.72;;;5.43;76.45
44198;BME280;30157;55.512;37.764;2022-10-22T14:12:28;100338.69;;;5.10;76.50
44198;BME280;30157;55.512;37.764;2022-10-22T14:14:59;100373.59;;;5.32;76.58
44198;BME280;30157;55.512;37.764;2022-10-22T14:17:25;100294.25;;;4.82;76.56
44198;BME280;30157;55.512;37.764;2022-10-22T14:19:56;100398.69;;;5.41;76.48
44198;BME280;30157;55.512;37.764;2022-10-22T14:22:25;100396.84;;;5.36;76.74
44198;BME280;30157;55.512;37.764;2022-10-22T14:24:55;100394.22;;;5.33;76.67
44198;BME280;30157;55.512;37.764;2022-10-22T14:27:21;100392.44;;;5.31;76.88
44198;BME280;30157;55.512;37.764;2022-10-22T14:29:47;100389.88;;;5.32;76.82
44198;BME280;30157;55.512;37.764;2022-10-22T14:32:15;100382.94;;;5.28;76.71
44198;BME280;30157;55.512;37.764;2022-10-22T14:34:41;100338.50;;;5.02;77.07
44198;BME280;30157;55.512;37.764;2022-10-22T14:37:17;100391.59;;;5.32;77.14
44198;BME280;30157;55.512;37.764;2022-10-22T14:39:45;100395.03;;;5.32;77.12
44198;BME280;30157;55.512;37.764;2022-10-22T14:42:16;100322.94;;;4.97;77.09
44198;BME280;30157;55.512;37.764;2022-10-22T14:44:42;100338.63;;;5.07;77.06
44198;BME280;30157;55.512;37.764;2022-10-22T14:47:08;100344.78;;;5.12;77.27
44198;BME280;30157;55.512;37.764;2022-10-22T14:49:33;100391.78;;;5.39;77.22
44198;BME280;30157;55.512;37.764;2022-10-22T14:51:59;100337.69;;;5.04;77.41
44198;BME280;30157;55.512;37.764;2022-10-22T14:54:38;100395.09;;;5.35;77.59
44198;BME280;30157;55.512;37.764;2022-10-22T14:57:24;100390.88;;;5.37;77.40